createdAt,value
2018-07-09T00:00:16.887Z,100635.69
2018-07-09T00:02:45.615Z,100635.83
2018-07-09T00:05:14.252Z,100632.80
2018-07-09T00:07:43.378Z,100630.04
2018-07-09T00:10:12.683Z,100632.20
2018-07-09T00:12:40.617Z,100628.95
2018-07-09T00:15:08.278Z,100630.76
2018-07-09T00:17:35.958Z,100633.56
2018-07-09T00:20:03.924Z,100634.89
2018-07-09T00:22:31.610Z,100637.52
2018-07-09T00:25:01.244Z,100638.18
2018-07-09T00:27:30.264Z,100647.27
2018-07-09T00:29:57.936Z,100641.81
2018-07-09T00:32:26.597Z,100641.27
2018-07-09T00:34:54.530Z,100638.38
2018-07-09T00:37:23.104Z,100638.16
2018-07-09T00:39:50.756Z,100641.17
2018-07-09T00:42:18.463Z,100643.31
2018-07-09T00:44:46.408Z,100646.80
2018-07-09T00:47:14.069Z,100650.95
2018-07-09T00:49:41.743Z,100650.05
2018-07-09T00:52:09.404Z,100645.59
2018-07-09T00:54:39.050Z,100649.43
2018-07-09T00:57:07.385Z,100647.29
2018-07-09T00:59:36.060Z,100646.59
2018-07-09T01:02:04.029Z,100643.34
2018-07-09T01:04:31.689Z,100642.17
2018-07-09T01:06:59.334Z,100644.14
2018-07-09T01:09:26.989Z,100649.48
2018-07-09T01:11:55.751Z,100650.75
2018-07-09T01:14:23.397Z,100653.23
2018-07-09T01:16:51.044Z,100647.67
2018-07-09T01:19:18.692Z,100644.61
2018-07-09T01:21:46.744Z,100646.25
2018-07-09T01:24:15.389Z,100646.22
2018-07-09T01:26:43.834Z,100639.63
2018-07-09T01:29:11.751Z,100636.38
2018-07-09T01:31:39.414Z,100633.61
2018-07-09T01:34:07.064Z,100636.60
2018-07-09T01:36:35.485Z,100632.14
2018-07-09T01:39:03.257Z,100627.89
2018-07-09T01:41:30.917Z,100627.20
2018-07-09T01:43:59.139Z,100623.59
2018-07-09T01:46:27.100Z,100630.63
2018-07-09T01:48:54.769Z,100624.34
2018-07-09T01:51:24.604Z,100619.09
2018-07-09T01:53:52.243Z,100627.08
2018-07-09T01:56:20.417Z,100626.47
2018-07-09T01:58:48.075Z,100626.81
2018-07-09T02:01:15.768Z,100624.30
2018-07-09T02:03:43.434Z,100609.03
2018-07-09T02:06:11.396Z,100611.52
2018-07-09T02:08:39.272Z,100616.02
2018-07-09T02:11:06.949Z,100608.97
2018-07-09T02:13:35.809Z,100612.11
2018-07-09T02:16:03.476Z,100612.25
2018-07-09T02:18:31.128Z,100617.70
2018-07-09T02:21:00.069Z,100620.87
2018-07-09T02:23:27.732Z,100622.69
2018-07-09T02:25:55.393Z,100621.27
2018-07-09T02:28:23.440Z,100615.38
2018-07-09T02:30:54.196Z,100605.80
2018-07-09T02:33:21.856Z,100606.97
2018-07-09T02:35:49.789Z,100616.89
2018-07-09T02:38:17.424Z,100611.53
2018-07-09T02:40:45.083Z,100615.48
2018-07-09T02:43:14.020Z,100615.38
2018-07-09T02:45:41.672Z,100617.86
2018-07-09T02:48:09.324Z,100615.30
2018-07-09T02:50:37.257Z,100621.66
2018-07-09T02:53:05.180Z,100618.97
2018-07-09T02:55:32.856Z,100628.83
2018-07-09T02:58:00.513Z,100626.27
2018-07-09T03:00:28.464Z,100631.43
2018-07-09T03:02:56.128Z,100634.72
2018-07-09T03:05:23.797Z,100636.20
2018-07-09T03:07:51.483Z,100629.27
2018-07-09T03:10:19.413Z,100635.11
2018-07-09T03:12:47.060Z,100632.83
2018-07-09T03:15:14.719Z,100629.70
2018-07-09T03:17:42.391Z,100633.37
2018-07-09T03:20:10.936Z,100626.23
2018-07-09T03:22:38.608Z,100632.94
2018-07-09T03:25:06.252Z,100634.05
2018-07-09T03:27:34.836Z,100634.31
2018-07-09T03:30:02.544Z,100638.57
2018-07-09T03:32:30.224Z,100633.80
2018-07-09T03:34:58.160Z,100638.18
2018-07-09T03:37:25.836Z,100640.74
2018-07-09T03:39:54.516Z,100637.20
2018-07-09T03:42:22.423Z,100639.05
2018-07-09T03:44:50.065Z,100637.83
2018-07-09T03:47:17.726Z,100643.81
2018-07-09T03:49:45.379Z,100639.05
2018-07-09T03:52:13.335Z,100644.41
2018-07-09T03:54:41.576Z,100639.44
2018-07-09T03:57:09.223Z,100644.95
2018-07-09T03:59:37.370Z,100649.63
2018-07-09T04:02:05.037Z,100649.38
2018-07-09T04:04:32.696Z,100654.88
2018-07-09T04:07:00.337Z,100655.02
2018-07-09T04:09:28.280Z,100643.20
2018-07-09T04:11:55.936Z,100653.91
2018-07-09T04:14:23.579Z,100654.66
2018-07-09T04:16:51.241Z,100665.97
2018-07-09T04:19:19.186Z,100668.27
2018-07-09T04:21:46.863Z,100668.72
2018-07-09T04:24:14.528Z,100674.56
2018-07-09T04:26:42.178Z,100669.30
2018-07-09T04:29:09.820Z,100672.31
2018-07-09T04:31:37.499Z,100665.06
2018-07-09T04:34:05.932Z,100669.84
2018-07-09T04:36:33.925Z,100670.34
2018-07-09T04:39:01.620Z,100673.75
2018-07-09T04:41:29.272Z,100667.64
2018-07-09T04:43:57.542Z,100669.47
2018-07-09T04:46:25.273Z,100665.98
2018-07-09T04:48:52.976Z,100677.27
2018-07-09T04:51:21.008Z,100673.02
2018-07-09T04:53:48.718Z,100673.75
2018-07-09T04:56:16.380Z,100678.69
2018-07-09T04:58:44.028Z,100681.49
2018-07-09T05:01:11.706Z,100675.16
2018-07-09T05:03:40.448Z,100672.97
2018-07-09T05:06:08.118Z,100671.41
2018-07-09T05:08:35.790Z,100673.80
2018-07-09T05:11:03.876Z,100678.27
2018-07-09T05:13:31.544Z,100677.70
2018-07-09T05:15:59.218Z,100673.72
2018-07-09T05:18:27.220Z,100671.80
2018-07-09T05:20:54.933Z,100667.84
2018-07-09T05:23:22.601Z,100671.36
2018-07-09T05:25:50.523Z,100680.90
2018-07-09T05:28:18.199Z,100677.67
2018-07-09T05:30:45.868Z,100675.17
2018-07-09T05:33:13.802Z,100676.91
2018-07-09T05:35:41.535Z,100682.61
2018-07-09T05:38:09.264Z,100680.37
2018-07-09T05:40:37.236Z,100676.64
2018-07-09T05:43:04.921Z,100674.53
2018-07-09T05:45:32.614Z,100664.17
2018-07-09T05:48:00.584Z,100666.27
2018-07-09T05:50:28.508Z,100662.71
2018-07-09T05:52:56.164Z,100665.72
2018-07-09T05:55:24.084Z,100659.08
2018-07-09T05:57:51.749Z,100655.90
2018-07-09T06:00:19.420Z,100647.84
2018-07-09T06:02:47.418Z,100648.45
2018-07-09T06:05:15.080Z,100652.27
2018-07-09T06:07:42.774Z,100653.50
2018-07-09T06:10:10.847Z,100658.47
2018-07-09T06:12:38.520Z,100648.30
2018-07-09T06:15:06.165Z,100651.26
2018-07-09T06:17:34.226Z,100641.53
2018-07-09T06:20:03.749Z,100643.81
2018-07-09T06:22:31.568Z,100638.95
2018-07-09T06:24:59.767Z,100634.75
2018-07-09T06:27:27.500Z,100638.32
2018-07-09T06:32:29.417Z,100639.55
2018-07-09T06:34:57.092Z,100640.46
2018-07-09T06:37:24.775Z,100645.23
2018-07-09T06:39:52.822Z,100644.28
2018-07-09T06:42:20.468Z,100641.64
2018-07-09T06:44:49.635Z,100631.37
2018-07-09T06:47:17.636Z,100635.42
2018-07-09T06:49:48.049Z,100639.83
2018-07-09T06:52:15.724Z,100640.56
2018-07-09T06:54:43.686Z,100645.31
2018-07-09T06:57:11.364Z,100648.72
2018-07-09T06:59:39.086Z,100654.12
2018-07-09T07:02:07.616Z,100654.83
2018-07-09T07:04:36.457Z,100649.43
2018-07-09T07:07:04.269Z,100659.91
2018-07-09T07:09:32.331Z,100658.24
2018-07-09T07:12:00.047Z,100654.52
2018-07-09T07:14:27.795Z,100658.91
2018-07-09T07:16:55.927Z,100652.83
2018-07-09T07:19:23.596Z,100660.59
2018-07-09T07:21:53.030Z,100662.30
2018-07-09T07:24:21.218Z,100657.73
2018-07-09T07:26:48.927Z,100660.29
2018-07-09T07:29:16.604Z,100658.38
2018-07-09T07:31:44.729Z,100658.20
2018-07-09T07:34:12.423Z,100659.20
2018-07-09T07:36:40.108Z,100656.63
2018-07-09T07:39:08.172Z,100655.25
2018-07-09T07:41:35.896Z,100648.97
2018-07-09T07:44:03.575Z,100647.64
2018-07-09T07:46:31.562Z,100644.27
2018-07-09T07:48:59.271Z,100639.34
2018-07-09T07:51:28.090Z,100636.93
2018-07-09T07:53:56.223Z,100637.09
2018-07-09T07:56:23.884Z,100630.64
2018-07-09T07:58:52.700Z,100623.16
2018-07-09T08:01:21.464Z,100620.90
2018-07-09T08:03:49.155Z,100619.78
2018-07-09T08:06:17.360Z,100623.63
2018-07-09T08:08:46.017Z,100635.56
2018-07-09T08:11:13.664Z,100633.08
2018-07-09T08:13:41.412Z,100635.77
2018-07-09T08:16:09.432Z,100633.13
2018-07-09T08:18:37.211Z,100632.32
2018-07-09T08:21:06.308Z,100624.23
2018-07-09T08:23:34.425Z,100629.23
2018-07-09T08:26:02.128Z,100618.21
2018-07-09T08:28:29.804Z,100617.80
2018-07-09T08:30:58.695Z,100621.93
2018-07-09T08:33:26.416Z,100613.66
2018-07-09T08:35:54.422Z,100608.80
2018-07-09T08:38:22.755Z,100609.17
2018-07-09T08:40:50.936Z,100604.77
2018-07-09T08:43:19.184Z,100608.43
2018-07-09T08:45:46.834Z,100612.09
2018-07-09T08:48:14.501Z,100602.38
2018-07-09T08:50:42.636Z,100595.52
2018-07-09T08:53:10.339Z,100597.33
2018-07-09T08:55:38.024Z,100585.53
2018-07-09T08:58:06.012Z,100587.48
2018-07-09T09:00:33.675Z,100587.02
2018-07-09T09:03:01.577Z,100588.82
2018-07-09T09:05:29.989Z,100593.47
2018-07-09T09:07:58.330Z,100595.11
2018-07-09T09:10:26.012Z,100593.25
2018-07-09T09:12:54.577Z,100588.97
2018-07-09T09:15:22.251Z,100583.88
2018-07-09T09:17:49.923Z,100589.66
2018-07-09T09:20:19.164Z,100589.22
2018-07-09T09:22:46.828Z,100590.19
2018-07-09T09:25:14.500Z,100586.90
2018-07-09T09:27:42.744Z,100588.73
2018-07-09T09:30:10.436Z,100585.42
2018-07-09T09:32:39.553Z,100584.22
2018-07-09T09:35:08.631Z,100577.91
2018-07-09T09:37:36.313Z,100569.28
2018-07-09T09:40:04.768Z,100569.23
2018-07-09T09:42:34.116Z,100576.85
2018-07-09T09:45:01.805Z,100568.84
2018-07-09T09:47:29.581Z,100569.36
2018-07-09T09:49:59.302Z,100558.30
2018-07-09T09:52:28.368Z,100564.34
2018-07-09T09:54:58.747Z,100569.91
2018-07-09T09:57:30.699Z,100555.91
2018-07-09T09:59:59.056Z,100552.81
2018-07-09T10:02:26.717Z,100550.50
2018-07-09T10:04:55.712Z,100547.31
2018-07-09T10:07:23.373Z,100555.55
2018-07-09T10:09:51.035Z,100549.25
2018-07-09T10:12:19.035Z,100549.22
2018-07-09T10:14:46.698Z,100547.48
2018-07-09T10:17:14.359Z,100548.62
2018-07-09T10:19:42.627Z,100547.03
2018-07-09T10:22:10.359Z,100550.46
2018-07-09T10:24:38.045Z,100552.11
2018-07-09T10:27:10.495Z,100549.72
2018-07-09T10:29:38.440Z,100548.73
2018-07-09T10:32:07.368Z,100546.95
2018-07-09T10:34:38.293Z,100541.91
2018-07-09T10:37:06.960Z,100540.77
2018-07-09T10:39:34.694Z,100549.67
2018-07-09T10:42:03.938Z,100547.48
2018-07-09T10:44:31.616Z,100543.20
2018-07-09T10:46:59.330Z,100533.16
2018-07-09T10:49:28.421Z,100534.44
2018-07-09T10:51:56.089Z,100537.34
2018-07-09T10:54:23.735Z,100532.80
2018-07-09T10:56:52.127Z,100531.16
2018-07-09T10:59:19.831Z,100530.31
2018-07-09T11:01:47.516Z,100537.84
2018-07-09T11:04:18.492Z,100529.39
2018-07-09T11:06:46.159Z,100524.51
2018-07-09T11:09:15.535Z,100535.44
2018-07-09T11:11:43.588Z,100526.66
2018-07-09T11:14:11.263Z,100527.89
2018-07-09T11:16:39.016Z,100530.55
2018-07-09T11:19:07.069Z,100529.39
2018-07-09T11:21:34.942Z,100532.44
2018-07-09T11:24:02.628Z,100540.61
2018-07-09T11:26:30.792Z,100533.06
2018-07-09T11:28:58.747Z,100527.12
2018-07-09T11:31:26.498Z,100527.23
2018-07-09T11:33:54.602Z,100518.13
2018-07-09T11:36:23.303Z,100527.17
2018-07-09T11:38:52.347Z,100522.27
2018-07-09T11:41:20.419Z,100525.05
2018-07-09T11:43:48.092Z,100533.89
2018-07-09T11:46:16.576Z,100529.35
2018-07-09T11:48:44.678Z,100526.94
2018-07-09T11:51:12.328Z,100526.11
2018-07-09T11:53:39.999Z,100524.35
2018-07-09T11:56:10.076Z,100527.38
2018-07-09T11:58:38.498Z,100530.17
2018-07-09T12:01:06.216Z,100520.51
2018-07-09T12:03:35.272Z,100517.70
2018-07-09T12:06:02.924Z,100527.30
2018-07-09T12:08:30.601Z,100523.75
2018-07-09T12:10:58.732Z,100524.02
2018-07-09T12:13:27.260Z,100524.41
2018-07-09T12:15:56.513Z,100522.80
2018-07-09T12:18:25.089Z,100524.63
2018-07-09T12:20:53.588Z,100525.08
2018-07-09T12:23:21.244Z,100529.91
2018-07-09T12:25:49.241Z,100526.68
2018-07-09T12:28:17.102Z,100530.34
2018-07-09T12:30:48.718Z,100527.14
2018-07-09T12:33:16.677Z,100530.31
2018-07-09T12:35:47.344Z,100525.84
2018-07-09T12:38:15.116Z,100521.59
2018-07-09T12:40:43.895Z,100518.48
2018-07-09T12:43:11.581Z,100518.06
2018-07-09T12:45:39.393Z,100523.01
2018-07-09T12:48:11.345Z,100513.02
2018-07-09T12:50:39.037Z,100511.58
2018-07-09T12:53:06.750Z,100498.73
2018-07-09T12:55:35.635Z,100503.14
2018-07-09T12:58:08.307Z,100507.17
2018-07-09T13:00:40.783Z,100508.84
2018-07-09T13:03:13.628Z,100509.09
2018-07-09T13:05:41.296Z,100511.98
2018-07-09T13:08:15.190Z,100499.53
2018-07-09T13:10:44.309Z,100499.85
2018-07-09T13:13:11.968Z,100502.73
2018-07-09T13:15:40.551Z,100498.23
2018-07-09T13:18:08.217Z,100493.14
2018-07-09T13:20:35.925Z,100497.73
2018-07-09T13:23:04.895Z,100483.71
2018-07-09T13:25:32.545Z,100493.91
2018-07-09T13:28:00.220Z,100490.23
2018-07-09T13:30:29.271Z,100487.78
2018-07-09T13:32:58.090Z,100485.20
2018-07-09T13:35:25.779Z,100486.52
2018-07-09T13:37:53.812Z,100484.52
2018-07-09T13:40:21.535Z,100483.00
2018-07-09T13:42:49.186Z,100482.39
2018-07-09T13:45:17.596Z,100480.39
2018-07-09T13:47:45.269Z,100475.56
2018-07-09T13:50:15.231Z,100476.28
2018-07-09T13:52:44.423Z,100475.53
2018-07-09T13:55:14.526Z,100475.20
2018-07-09T13:57:42.256Z,100464.62
2018-07-09T14:00:11.959Z,100468.39
2018-07-09T14:02:39.658Z,100464.30
2018-07-09T14:05:07.370Z,100458.50
2018-07-09T14:07:40.128Z,100454.21
2018-07-09T14:10:07.830Z,100454.67
2018-07-09T14:12:35.547Z,100450.84
2018-07-09T14:15:04.583Z,100453.36
2018-07-09T14:17:32.341Z,100445.69
2018-07-09T14:20:00.920Z,100441.30
2018-07-09T14:22:29.833Z,100437.63
2018-07-09T14:24:58.389Z,100425.11
2018-07-09T14:27:26.101Z,100419.31
2018-07-09T14:29:54.668Z,100412.77
2018-07-09T14:32:22.686Z,100411.09
2018-07-09T14:34:50.547Z,100403.12
2018-07-09T14:37:19.100Z,100410.44
2018-07-09T14:39:46.801Z,100399.68
2018-07-09T14:42:14.480Z,100399.84
2018-07-09T14:44:43.541Z,100396.25
2018-07-09T14:47:16.399Z,100394.78
2018-07-09T14:49:44.136Z,100392.23
2018-07-09T14:52:12.907Z,100390.38
2018-07-09T14:54:41.554Z,100392.52
2018-07-09T14:57:10.368Z,100392.95
2018-07-09T14:59:39.510Z,100387.83
2018-07-09T15:02:07.948Z,100388.94
2018-07-09T15:04:35.664Z,100387.86
2018-07-09T15:07:03.948Z,100386.57
2018-07-09T15:09:32.413Z,100389.26
2018-07-09T15:12:01.454Z,100389.30
2018-07-09T15:14:29.632Z,100377.09
2018-07-09T15:16:57.532Z,100381.04
2018-07-09T15:19:25.231Z,100378.91
2018-07-09T15:21:56.281Z,100383.25
2018-07-09T15:24:24.735Z,100374.97
2018-07-09T15:26:53.930Z,100368.58
2018-07-09T15:29:21.968Z,100374.98
2018-07-09T15:31:50.232Z,100368.92
2018-07-09T15:34:18.769Z,100362.78
2018-07-09T15:36:49.648Z,100365.91
2018-07-09T15:39:18.088Z,100361.16
2018-07-09T15:41:46.536Z,100365.78
2018-07-09T15:44:15.343Z,100364.10
2018-07-09T15:46:46.583Z,100357.48
2018-07-09T15:49:14.325Z,100358.14
2018-07-09T15:51:42.296Z,100358.41
2018-07-09T15:54:11.443Z,100353.72
2018-07-09T15:56:40.015Z,100355.63
2018-07-09T15:59:08.643Z,100356.80
2018-07-09T16:01:37.896Z,100361.98
2018-07-09T16:04:06.510Z,100363.34
2018-07-09T16:06:34.515Z,100360.88
2018-07-09T16:09:03.670Z,100356.30
2018-07-09T16:11:32.221Z,100351.81
2018-07-09T16:14:01.628Z,100344.81
2018-07-09T16:16:31.718Z,100350.30
2018-07-09T16:18:59.407Z,100338.78
2018-07-09T16:21:29.360Z,100343.37
2018-07-09T16:23:58.084Z,100339.42
2018-07-09T16:26:27.279Z,100340.74
2018-07-09T16:28:55.493Z,100339.66
2018-07-09T16:31:24.079Z,100336.14
2018-07-09T16:33:53.495Z,100332.64
2018-07-09T16:36:22.229Z,100328.75
2018-07-09T16:38:50.940Z,100325.20
2018-07-09T16:41:20.177Z,100323.75
2018-07-09T16:43:48.557Z,100323.62
2018-07-09T16:46:16.324Z,100321.31
2018-07-09T16:48:48.563Z,100306.82
2018-07-09T16:51:18.592Z,100308.77
2018-07-09T16:53:46.304Z,100306.33
2018-07-09T16:56:13.975Z,100297.65
2018-07-09T17:01:15.875Z,100295.22
2018-07-09T17:03:43.550Z,100295.05
2018-07-09T17:06:11.616Z,100295.39
2018-07-09T17:08:40.485Z,100286.78
2018-07-09T17:11:09.201Z,100284.69
2018-07-09T17:13:37.245Z,100282.95
2018-07-09T17:16:07.173Z,100275.05
2018-07-09T17:18:35.530Z,100277.57
2018-07-09T17:21:04.449Z,100279.56
2018-07-09T17:23:33.219Z,100280.30
2018-07-09T17:26:01.713Z,100273.44
2018-07-09T17:28:32.058Z,100271.81
2018-07-09T17:30:59.757Z,100271.80
2018-07-09T17:33:28.479Z,100277.27
2018-07-09T17:35:56.463Z,100278.94
2018-07-09T17:38:25.467Z,100286.69
2018-07-09T17:40:55.084Z,100294.12
2018-07-09T17:43:29.935Z,100288.96
2018-07-09T17:45:58.203Z,100286.84
2018-07-09T17:48:26.043Z,100273.52
2018-07-09T17:50:55.244Z,100290.02
2018-07-09T17:53:26.135Z,100287.98
2018-07-09T17:55:53.899Z,100282.07
2018-07-09T17:58:21.992Z,100281.33
2018-07-09T18:00:50.415Z,100281.90
2018-07-09T18:03:18.718Z,100286.61
2018-07-09T18:05:48.512Z,100276.50
2018-07-09T18:08:17.009Z,100280.60
2018-07-09T18:10:45.350Z,100277.42
2018-07-09T18:13:15.678Z,100276.60
2018-07-09T18:15:50.303Z,100275.24
2018-07-09T18:18:17.992Z,100281.64
2018-07-09T18:20:48.305Z,100275.17
2018-07-09T18:23:17.321Z,100270.92
2018-07-09T18:25:48.270Z,100273.47
2018-07-09T18:28:16.580Z,100271.25
2018-07-09T18:30:45.368Z,100268.07
2018-07-09T18:33:15.236Z,100267.81
2018-07-09T18:35:46.512Z,100258.17
2018-07-09T18:38:14.421Z,100258.89
2018-07-09T18:40:42.740Z,100263.45
2018-07-09T18:43:10.820Z,100262.81
2018-07-09T18:45:38.480Z,100256.20
2018-07-09T18:48:06.270Z,100263.48
2018-07-09T18:50:36.027Z,100251.02
2018-07-09T18:53:04.580Z,100256.80
2018-07-09T18:55:32.278Z,100259.25
2018-07-09T18:58:09.577Z,100261.29
2018-07-09T19:00:37.337Z,100257.28
2018-07-09T19:03:08.187Z,100253.59
2018-07-09T19:05:36.165Z,100254.98
2018-07-09T19:08:05.264Z,100259.44
2018-07-09T19:10:34.556Z,100248.94
2018-07-09T19:13:03.580Z,100256.92
2018-07-09T19:15:32.404Z,100258.17
2018-07-09T19:18:02.455Z,100267.66
2018-07-09T19:20:36.814Z,100263.61
2018-07-09T19:23:07.329Z,100264.64
2018-07-09T19:25:40.257Z,100259.45
2018-07-09T19:28:09.616Z,100258.97
2018-07-09T19:30:39.334Z,100259.35
2018-07-09T19:33:09.309Z,100270.22
2018-07-09T19:35:37.698Z,100266.88
2018-07-09T19:38:07.873Z,100269.97
2018-07-09T19:40:37.212Z,100266.30
2018-07-09T19:43:05.679Z,100270.76
2018-07-09T19:45:35.778Z,100282.14
2018-07-09T19:48:03.951Z,100287.78
2018-07-09T19:50:32.174Z,100289.84
2018-07-09T19:53:01.026Z,100287.19
2018-07-09T19:55:31.450Z,100287.52
2018-07-09T19:58:00.572Z,100291.96
2018-07-09T20:00:30.373Z,100300.09
2018-07-09T20:03:03.220Z,100296.03
2018-07-09T20:05:33.859Z,100290.97
2018-07-09T20:08:01.931Z,100294.91
2018-07-09T20:10:37.334Z,100290.05
2018-07-09T20:13:20.715Z,100287.05
2018-07-09T20:15:53.620Z,100292.30
2018-07-09T20:18:21.300Z,100289.11
2018-07-09T20:20:50.128Z,100291.00
2018-07-09T20:23:18.261Z,100287.64
2018-07-09T20:25:47.564Z,100280.05
2018-07-09T20:28:19.427Z,100291.94
2018-07-09T20:30:51.332Z,100292.62
2018-07-09T20:33:20.768Z,100292.30
2018-07-09T20:35:48.465Z,100283.69
2018-07-09T20:38:16.526Z,100282.86
2018-07-09T20:40:44.837Z,100280.52
2018-07-09T20:43:12.496Z,100284.25
2018-07-09T20:45:40.538Z,100287.11
2018-07-09T20:48:08.209Z,100282.03
2018-07-09T20:50:36.690Z,100283.91
2018-07-09T20:53:06.599Z,100281.40
2018-07-09T20:55:34.250Z,100283.60
2018-07-09T20:58:02.697Z,100276.34
2018-07-09T21:00:33.596Z,100271.79
2018-07-09T21:03:02.256Z,100279.89
2018-07-09T21:05:29.934Z,100271.98
2018-07-09T21:07:59.702Z,100270.45
2018-07-09T21:10:27.630Z,100274.53
2018-07-09T21:12:58.627Z,100272.48
2018-07-09T21:15:29.336Z,100274.19
2018-07-09T21:18:01.391Z,100275.70
2018-07-09T22:02:32.644Z,100266.36
2018-07-09T22:05:01.138Z,100261.48
2018-07-09T22:07:29.346Z,100257.77
2018-07-09T22:09:58.690Z,100258.97
2018-07-09T22:12:26.365Z,100259.64
2018-07-09T22:14:56.040Z,100260.30
2018-07-09T22:17:24.663Z,100252.88
2018-07-09T22:19:52.327Z,100256.28
2018-07-09T22:22:20.908Z,100255.27
2018-07-09T22:24:49.188Z,100253.58
2018-07-09T22:27:16.856Z,100250.52
2018-07-09T22:29:46.105Z,100254.93
2018-07-09T22:32:16.504Z,100253.73
2018-07-09T22:34:44.451Z,100262.52
2018-07-09T22:37:12.377Z,100261.30
2018-07-09T22:39:40.044Z,100267.70
2018-07-09T22:42:07.703Z,100266.64
2018-07-09T22:44:36.157Z,100275.16
2018-07-09T22:47:05.280Z,100271.24
2018-07-09T22:49:32.936Z,100276.94
2018-07-09T22:52:00.583Z,100276.53
2018-07-09T22:54:29.043Z,100278.02
2018-07-09T22:56:57.173Z,100282.89
2018-07-09T22:59:24.848Z,100279.48
2018-07-09T23:01:52.480Z,100283.13
2018-07-09T23:04:20.128Z,100290.16
2018-07-09T23:06:47.764Z,100284.23
2018-07-09T23:09:16.524Z,100272.84
2018-07-09T23:11:44.691Z,100272.88
2018-07-09T23:14:12.763Z,100277.22
2018-07-09T23:16:41.312Z,100276.25
2018-07-09T23:19:10.316Z,100271.42
2018-07-09T23:21:39.428Z,100263.59
2018-07-09T23:24:07.071Z,100260.83
2018-07-09T23:26:36.101Z,100259.89
2018-07-09T23:29:04.462Z,100261.20
2018-07-09T23:31:33.737Z,100254.94
2018-07-09T23:34:05.311Z,100248.81
2018-07-09T23:36:33.751Z,100250.97
2018-07-09T23:39:01.656Z,100261.58
2018-07-09T23:41:30.029Z,100257.71
2018-07-09T23:43:57.682Z,100254.77
2018-07-09T23:46:25.361Z,100246.24
2018-07-09T23:48:53.116Z,100245.30
2018-07-09T23:51:21.082Z,100232.52
2018-07-09T23:53:48.717Z,100236.03
2018-07-09T23:56:17.804Z,100221.09
2018-07-09T23:58:46.145Z,100223.13
